sensor_id;sensor_type;location;lat;lon;timestamp;pressure;altitude;pressure_sealevel;temperature
65290;BMP180;51893;59.754;10.110;2023-05-07T00:00:22;102920.00;;;3.40
65290;BMP180;51893;59.754;10.110;2023-05-07T00:03:11;102923.60;;;3.40
65290;BMP180;51893;59.754;10.110;2023-05-07T00:05:39;102919.40;;;3.40
65290;BMP180;51893;59.754;10.110;2023-05-07T00:08:13;102918.80;;;3.40
65290;BMP180;51893;59.754;10.110;2023-05-07T00:10:41;102918.00;;;3.40
65290;BMP180;51893;59.754;10.110;2023-05-07T00:13:10;102918.00;;;3.38
65290;BMP180;51893;59.754;10.110;2023-05-07T00:15:39;102915.60;;;3.32
65290;BMP180;51893;59.754;10.110;2023-05-07T00:18:10;102927.20;;;3.30
65290;BMP180;51893;59.754;10.110;2023-05-07T00:20:41;102929.20;;;3.20
65290;BMP180;51893;59.754;10.110;2023-05-07T00:23:13;102927.40;;;3.20
65290;BMP180;51893;59.754;10.110;2023-05-07T00:25:41;102927.20;;;3.16
65290;BMP180;51893;59.754;10.110;2023-05-07T00:28:10;102930.00;;;3.10
65290;BMP180;51893;59.754;10.110;2023-05-07T00:30:38;102930.40;;;3.04
65290;BMP180;51893;59.754;10.110;2023-05-07T00:33:06;102935.80;;;3.00
65290;BMP180;51893;59.754;10.110;2023-05-07T00:35:36;102934.40;;;3.00
65290;BMP180;51893;59.754;10.110;2023-05-07T00:38:05;102935.60;;;3.10
65290;BMP180;51893;59.754;10.110;2023-05-07T00:40:33;102937.40;;;3.10
65290;BMP180;51893;59.754;10.110;2023-05-07T00:43:02;102940.60;;;3.00
65290;BMP180;51893;59.754;10.110;2023-05-07T00:45:30;102939.60;;;3.00
65290;BMP180;51893;59.754;10.110;2023-05-07T00:48:02;102935.40;;;3.10
65290;BMP180;51893;59.754;10.110;2023-05-07T00:50:34;102940.20;;;3.10
65290;BMP180;51893;59.754;10.110;2023-05-07T00:53:04;102936.80;;;3.10
65290;BMP180;51893;59.754;10.110;2023-05-07T00:55:32;102937.20;;;3.02
65290;BMP180;51893;59.754;10.110;2023-05-07T00:58:01;102935.60;;;3.00
65290;BMP180;51893;59.754;10.110;2023-05-07T01:00:30;102936.60;;;2.92
65290;BMP180;51893;59.754;10.110;2023-05-07T01:03:04;102932.00;;;2.84
65290;BMP180;51893;59.754;10.110;2023-05-07T01:05:34;102933.00;;;2.80
65290;BMP180;51893;59.754;10.110;2023-05-07T01:08:04;102932.20;;;2.76
65290;BMP180;51893;59.754;10.110;2023-05-07T01:10:34;102930.00;;;2.70
65290;BMP180;51893;59.754;10.110;2023-05-07T01:13:03;102929.00;;;2.70
65290;BMP180;51893;59.754;10.110;2023-05-07T01:15:32;102925.40;;;2.70
65290;BMP180;51893;59.754;10.110;2023-05-07T01:18:04;102928.60;;;2.70
65290;BMP180;51893;59.754;10.110;2023-05-07T01:20:34;102932.00;;;2.60
65290;BMP180;51893;59.754;10.110;2023-05-07T01:23:03;102932.00;;;2.60
65290;BMP180;51893;59.754;10.110;2023-05-07T01:25:32;102924.60;;;2.58
65290;BMP180;51893;59.754;10.110;2023-05-07T01:28:00;102928.60;;;2.60
65290;BMP180;51893;59.754;10.110;2023-05-07T01:30:34;102924.80;;;2.50
65290;BMP180;51893;59.754;10.110;2023-05-07T01:33:11;102929.40;;;2.50
65290;BMP180;51893;59.754;10.110;2023-05-07T01:35:47;102927.00;;;2.44
65290;BMP180;51893;59.754;10.110;2023-05-07T01:38:19;102924.00;;;2.42
65290;BMP180;51893;59.754;10.110;2023-05-07T01:40:51;102922.80;;;2.48
65290;BMP180;51893;59.754;10.110;2023-05-07T01:43:19;102926.00;;;2.38
65290;BMP180;51893;59.754;10.110;2023-05-07T01:45:49;102928.80;;;2.30
65290;BMP180;51893;59.754;10.110;2023-05-07T01:48:19;102930.00;;;2.30
65290;BMP180;51893;59.754;10.110;2023-05-07T01:50:54;102928.40;;;2.30
65290;BMP180;51893;59.754;10.110;2023-05-07T01:53:23;102928.20;;;2.30
65290;BMP180;51893;59.754;10.110;2023-05-07T01:55:51;102930.80;;;2.20
65290;BMP180;51893;59.754;10.110;2023-05-07T01:58:19;102932.80;;;2.14
65290;BMP180;51893;59.754;10.110;2023-05-07T02:00:47;102937.00;;;2.10
65290;BMP180;51893;59.754;10.110;2023-05-07T02:03:16;102937.40;;;2.00
65290;BMP180;51893;59.754;10.110;2023-05-07T02:05:46;102933.00;;;2.00
65290;BMP180;51893;59.754;10.110;2023-05-07T02:08:14;102937.80;;;2.00
65290;BMP180;51893;59.754;10.110;2023-05-07T02:10:43;102937.20;;;1.90
65290;BMP180;51893;59.754;10.110;2023-05-07T02:13:12;102936.40;;;1.90
65290;BMP180;51893;59.754;10.110;2023-05-07T02:15:42;102938.20;;;1.90
65290;BMP180;51893;59.754;10.110;2023-05-07T02:18:12;102941.40;;;1.90
65290;BMP180;51893;59.754;10.110;2023-05-07T02:20:40;102939.80;;;1.90
65290;BMP180;51893;59.754;10.110;2023-05-07T02:23:12;102941.60;;;1.84
65290;BMP180;51893;59.754;10.110;2023-05-07T02:25:41;102943.00;;;1.80
65290;BMP180;51893;59.754;10.110;2023-05-07T02:28:10;102946.40;;;1.80
65290;BMP180;51893;59.754;10.110;2023-05-07T02:30:39;102944.80;;;1.80
65290;BMP180;51893;59.754;10.110;2023-05-07T02:33:11;102948.60;;;1.70
65290;BMP180;51893;59.754;10.110;2023-05-07T02:35:41;102950.60;;;1.70
65290;BMP180;51893;59.754;10.110;2023-05-07T02:38:09;102950.00;;;1.80
65290;BMP180;51893;59.754;10.110;2023-05-07T02:40:41;102952.60;;;1.80
65290;BMP180;51893;59.754;10.110;2023-05-07T02:43:09;102949.80;;;1.80
65290;BMP180;51893;59.754;10.110;2023-05-07T02:45:37;102949.60;;;1.80
65290;BMP180;51893;59.754;10.110;2023-05-07T02:48:09;102955.60;;;1.80
65290;BMP180;51893;59.754;10.110;2023-05-07T02:50:38;102955.60;;;1.70
65290;BMP180;51893;59.754;10.110;2023-05-07T02:53:09;102957.80;;;1.62
65290;BMP180;51893;59.754;10.110;2023-05-07T02:55:38;102962.60;;;1.60
65290;BMP180;51893;59.754;10.110;2023-05-07T02:58:07;102964.00;;;1.50
65290;BMP180;51893;59.754;10.110;2023-05-07T03:00:38;102967.60;;;1.50
65290;BMP180;51893;59.754;10.110;2023-05-07T03:03:09;102962.80;;;1.40
65290;BMP180;51893;59.754;10.110;2023-05-07T03:05:40;102967.40;;;1.34
65290;BMP180;51893;59.754;10.110;2023-05-07T03:08:09;102969.20;;;1.40
65290;BMP180;51893;59.754;10.110;2023-05-07T03:10:43;102969.20;;;1.48
65290;BMP180;51893;59.754;10.110;2023-05-07T03:13:16;102971.40;;;1.42
65290;BMP180;51893;59.754;10.110;2023-05-07T03:15:45;102974.00;;;1.40
65290;BMP180;51893;59.754;10.110;2023-05-07T03:18:14;102980.80;;;1.40
65290;BMP180;51893;59.754;10.110;2023-05-07T03:20:44;102981.40;;;1.40
65290;BMP180;51893;59.754;10.110;2023-05-07T03:23:12;102979.60;;;1.38
65290;BMP180;51893;59.754;10.110;2023-05-07T03:25:40;102985.40;;;1.34
65290;BMP180;51893;59.754;10.110;2023-05-07T03:28:12;102987.60;;;1.32
65290;BMP180;51893;59.754;10.110;2023-05-07T03:30:46;102986.60;;;1.30
65290;BMP180;51893;59.754;10.110;2023-05-07T03:33:15;102989.60;;;1.30
65290;BMP180;51893;59.754;10.110;2023-05-07T03:35:44;102990.00;;;1.30
65290;BMP180;51893;59.754;10.110;2023-05-07T03:38:13;102995.60;;;1.26
65290;BMP180;51893;59.754;10.110;2023-05-07T03:40:43;102993.00;;;1.30
65290;BMP180;51893;59.754;10.110;2023-05-07T03:43:11;102998.00;;;1.30
65290;BMP180;51893;59.754;10.110;2023-05-07T03:45:41;102990.40;;;1.30
65290;BMP180;51893;59.754;10.110;2023-05-07T03:48:10;102994.80;;;1.38
65290;BMP180;51893;59.754;10.110;2023-05-07T03:50:41;102992.40;;;1.30
65290;BMP180;51893;59.754;10.110;2023-05-07T03:53:09;102992.40;;;1.32
65290;BMP180;51893;59.754;10.110;2023-05-07T03:55:37;102992.80;;;1.40
65290;BMP180;51893;59.754;10.110;2023-05-07T03:58:07;102992.20;;;1.40
65290;BMP180;51893;59.754;10.110;2023-05-07T04:00:35;102996.20;;;1.32
65290;BMP180;51893;59.754;10.110;2023-05-07T04:03:08;103001.80;;;1.30
65290;BMP180;51893;59.754;10.110;2023-05-07T04:05:36;103003.00;;;1.30
65290;BMP180;51893;59.754;10.110;2023-05-07T04:08:04;103003.80;;;1.30
65290;BMP180;51893;59.754;10.110;2023-05-07T04:10:33;103001.00;;;1.32
65290;BMP180;51893;59.754;10.110;2023-05-07T04:13:03;102998.80;;;1.40
65290;BMP180;51893;59.754;10.110;2023-05-07T04:15:32;103003.40;;;1.40
65290;BMP180;51893;59.754;10.110;2023-05-07T04:17:59;103006.40;;;1.50
65290;BMP180;51893;59.754;10.110;2023-05-07T04:20:28;103004.60;;;1.50
65290;BMP180;51893;59.754;10.110;2023-05-07T04:22:59;103003.20;;;1.50
65290;BMP180;51893;59.754;10.110;2023-05-07T04:25:28;102999.20;;;1.52
65290;BMP180;51893;59.754;10.110;2023-05-07T04:27:59;103005.80;;;1.60
65290;BMP180;51893;59.754;10.110;2023-05-07T04:30:30;103003.80;;;1.68
65290;BMP180;51893;59.754;10.110;2023-05-07T04:32:58;103006.40;;;1.70
65290;BMP180;51893;59.754;10.110;2023-05-07T04:35:33;103005.00;;;1.70
65290;BMP180;51893;59.754;10.110;2023-05-07T04:38:05;103010.60;;;1.80
65290;BMP180;51893;59.754;10.110;2023-05-07T04:40:35;103010.80;;;1.80
65290;BMP180;51893;59.754;10.110;2023-05-07T04:43:08;103010.80;;;1.90
65290;BMP180;51893;59.754;10.110;2023-05-07T04:45:37;103010.20;;;1.90
65290;BMP180;51893;59.754;10.110;2023-05-07T04:48:10;103010.00;;;2.00
65290;BMP180;51893;59.754;10.110;2023-05-07T04:50:38;103013.80;;;2.00
65290;BMP180;51893;59.754;10.110;2023-05-07T04:53:08;103021.80;;;2.04
65290;BMP180;51893;59.754;10.110;2023-05-07T04:55:38;103023.60;;;2.10
65290;BMP180;51893;59.754;10.110;2023-05-07T04:58:07;103024.00;;;2.10
65290;BMP180;51893;59.754;10.110;2023-05-07T05:00:35;103029.60;;;2.14
65290;BMP180;51893;59.754;10.110;2023-05-07T05:03:04;103032.00;;;2.20
65290;BMP180;51893;59.754;10.110;2023-05-07T05:05:33;103037.20;;;2.18
65290;BMP180;51893;59.754;10.110;2023-05-07T05:08:03;103036.20;;;2.20
65290;BMP180;51893;59.754;10.110;2023-05-07T05:10:34;103034.80;;;2.20
65290;BMP180;51893;59.754;10.110;2023-05-07T05:13:03;103039.80;;;2.22
65290;BMP180;51893;59.754;10.110;2023-05-07T05:15:38;103039.00;;;2.30
65290;BMP180;51893;59.754;10.110;2023-05-07T05:18:06;103039.00;;;2.22
65290;BMP180;51893;59.754;10.110;2023-05-07T05:20:35;103038.00;;;2.20
65290;BMP180;51893;59.754;10.110;2023-05-07T05:23:03;103039.60;;;2.30
65290;BMP180;51893;59.754;10.110;2023-05-07T05:25:31;103043.00;;;2.30
65290;BMP180;51893;59.754;10.110;2023-05-07T05:28:08;103040.00;;;2.30
65290;BMP180;51893;59.754;10.110;2023-05-07T05:30:39;103037.20;;;2.34
65290;BMP180;51893;59.754;10.110;2023-05-07T05:33:09;103035.60;;;2.40
65290;BMP180;51893;59.754;10.110;2023-05-07T05:35:37;103039.40;;;2.50
65290;BMP180;51893;59.754;10.110;2023-05-07T05:38:05;103037.80;;;2.68
65290;BMP180;51893;59.754;10.110;2023-05-07T05:40:34;103045.40;;;2.70
65290;BMP180;51893;59.754;10.110;2023-05-07T05:43:02;103040.80;;;2.80
65290;BMP180;51893;59.754;10.110;2023-05-07T05:45:33;103039.00;;;2.90
65290;BMP180;51893;59.754;10.110;2023-05-07T05:48:04;103043.00;;;3.00
65290;BMP180;51893;59.754;10.110;2023-05-07T05:50:34;103043.80;;;3.10
65290;BMP180;51893;59.754;10.110;2023-05-07T05:53:05;103044.20;;;3.20
65290;BMP180;51893;59.754;10.110;2023-05-07T05:55:36;103043.00;;;3.30
65290;BMP180;51893;59.754;10.110;2023-05-07T05:58:04;103044.40;;;3.40
65290;BMP180;51893;59.754;10.110;2023-05-07T06:00:33;103041.20;;;3.50
65290;BMP180;51893;59.754;10.110;2023-05-07T06:03:01;103043.20;;;3.52
65290;BMP180;51893;59.754;10.110;2023-05-07T06:05:29;103048.00;;;3.60
65290;BMP180;51893;59.754;10.110;2023-05-07T06:07:58;103049.60;;;3.60
65290;BMP180;51893;59.754;10.110;2023-05-07T06:10:30;103049.60;;;3.60
65290;BMP180;51893;59.754;10.110;2023-05-07T06:12:59;103051.60;;;3.68
65290;BMP180;51893;59.754;10.110;2023-05-07T06:15:29;103054.40;;;3.70
65290;BMP180;51893;59.754;10.110;2023-05-07T06:18:01;103052.40;;;3.72
65290;BMP180;51893;59.754;10.110;2023-05-07T06:20:29;103047.80;;;3.82
65290;BMP180;51893;59.754;10.110;2023-05-07T06:22:57;103051.40;;;3.90
65290;BMP180;51893;59.754;10.110;2023-05-07T06:25:25;103050.80;;;3.98
65290;BMP180;51893;59.754;10.110;2023-05-07T06:27:55;103047.40;;;4.02
65290;BMP180;51893;59.754;10.110;2023-05-07T06:30:24;103045.60;;;4.10
65290;BMP180;51893;59.754;10.110;2023-05-07T06:32:54;103047.80;;;4.10
65290;BMP180;51893;59.754;10.110;2023-05-07T06:35:22;103044.60;;;4.18
65290;BMP180;51893;59.754;10.110;2023-05-07T06:37:54;103044.20;;;4.30
65290;BMP180;51893;59.754;10.110;2023-05-07T06:40:24;103044.00;;;4.40
65290;BMP180;51893;59.754;10.110;2023-05-07T06:42:55;103037.40;;;4.50
65290;BMP180;51893;59.754;10.110;2023-05-07T06:45:25;103038.80;;;4.66
65290;BMP180;51893;59.754;10.110;2023-05-07T06:47:55;103039.60;;;4.70
65290;BMP180;51893;59.754;10.110;2023-05-07T06:50:25;103043.20;;;4.80
65290;BMP180;51893;59.754;10.110;2023-05-07T06:52:55;103041.20;;;4.90
65290;BMP180;51893;59.754;10.110;2023-05-07T06:55:24;103036.00;;;5.00
65290;BMP180;51893;59.754;10.110;2023-05-07T06:57:54;103038.80;;;5.10
65290;BMP180;51893;59.754;10.110;2023-05-07T07:00:23;103041.40;;;5.20
65290;BMP180;51893;59.754;10.110;2023-05-07T07:02:51;103046.00;;;5.30
65290;BMP180;51893;59.754;10.110;2023-05-07T07:05:21;103049.60;;;5.40
65290;BMP180;51893;59.754;10.110;2023-05-07T07:07:50;103047.60;;;5.50
65290;BMP180;51893;59.754;10.110;2023-05-07T07:10:21;103049.00;;;5.60
65290;BMP180;51893;59.754;10.110;2023-05-07T07:12:50;103050.20;;;5.70
65290;BMP180;51893;59.754;10.110;2023-05-07T07:15:20;103047.60;;;5.80
65290;BMP180;51893;59.754;10.110;2023-05-07T07:17:52;103045.40;;;5.90
65290;BMP180;51893;59.754;10.110;2023-05-07T07:20:21;103045.80;;;6.00
65290;BMP180;51893;59.754;10.110;2023-05-07T07:22:51;103043.60;;;6.10
65290;BMP180;51893;59.754;10.110;2023-05-07T07:25:20;103044.00;;;6.30
65290;BMP180;51893;59.754;10.110;2023-05-07T07:27:51;103043.20;;;6.40
65290;BMP180;51893;59.754;10.110;2023-05-07T07:30:21;103043.20;;;6.60
65290;BMP180;51893;59.754;10.110;2023-05-07T07:33:03;103042.20;;;6.70
65290;BMP180;51893;59.754;10.110;2023-05-07T07:35:32;103044.40;;;6.80
65290;BMP180;51893;59.754;10.110;2023-05-07T07:38:00;103042.00;;;6.90
65290;BMP180;51893;59.754;10.110;2023-05-07T07:40:29;103042.60;;;6.92
65290;BMP180;51893;59.754;10.110;2023-05-07T07:42:57;103048.60;;;7.06
65290;BMP180;51893;59.754;10.110;2023-05-07T07:45:26;103049.20;;;7.20
65290;BMP180;51893;59.754;10.110;2023-05-07T07:47:54;103046.00;;;7.30
65290;BMP180;51893;59.754;10.110;2023-05-07T07:50:22;103048.00;;;7.40
65290;BMP180;51893;59.754;10.110;2023-05-07T07:53:10;103044.60;;;7.52
65290;BMP180;51893;59.754;10.110;2023-05-07T07:55:40;103051.80;;;7.70
65290;BMP180;51893;59.754;10.110;2023-05-07T07:58:08;103050.20;;;7.80
65290;BMP180;51893;59.754;10.110;2023-05-07T08:00:36;103052.80;;;7.88
65290;BMP180;51893;59.754;10.110;2023-05-07T08:03:05;103053.60;;;7.90
65290;BMP180;51893;59.754;10.110;2023-05-07T08:05:35;103049.00;;;8.00
65290;BMP180;51893;59.754;10.110;2023-05-07T08:08:04;103052.80;;;8.10
65290;BMP180;51893;59.754;10.110;2023-05-07T08:10:35;103051.00;;;8.20
65290;BMP180;51893;59.754;10.110;2023-05-07T08:13:06;103053.00;;;8.30
65290;BMP180;51893;59.754;10.110;2023-05-07T08:15:35;103051.80;;;8.44
65290;BMP180;51893;59.754;10.110;2023-05-07T08:18:04;103046.80;;;8.60
65290;BMP180;51893;59.754;10.110;2023-05-07T08:20:36;103048.80;;;8.70
65290;BMP180;51893;59.754;10.110;2023-05-07T08:23:08;103048.40;;;8.84
65290;BMP180;51893;59.754;10.110;2023-05-07T08:25:36;103046.40;;;9.00
65290;BMP180;51893;59.754;10.110;2023-05-07T08:28:05;103053.80;;;9.14
65290;BMP180;51893;59.754;10.110;2023-05-07T08:30:38;103057.20;;;9.30
65290;BMP180;51893;59.754;10.110;2023-05-07T08:33:09;103055.40;;;9.40
65290;BMP180;51893;59.754;10.110;2023-05-07T08:35:42;103056.80;;;9.50
65290;BMP180;51893;59.754;10.110;2023-05-07T08:38:10;103059.40;;;9.68
65290;BMP180;51893;59.754;10.110;2023-05-07T08:40:40;103057.00;;;9.80
65290;BMP180;51893;59.754;10.110;2023-05-07T08:43:14;103060.20;;;9.90
65290;BMP180;51893;59.754;10.110;2023-05-07T08:45:45;103057.80;;;10.10
65290;BMP180;51893;59.754;10.110;2023-05-07T08:48:17;103057.20;;;10.22
65290;BMP180;51893;59.754;10.110;2023-05-07T08:50:46;103054.80;;;10.40
65290;BMP180;51893;59.754;10.110;2023-05-07T08:53:16;103047.60;;;10.58
65290;BMP180;51893;59.754;10.110;2023-05-07T08:55:47;103045.80;;;10.70
65290;BMP180;51893;59.754;10.110;2023-05-07T08:58:20;103045.00;;;10.90
65290;BMP180;51893;59.754;10.110;2023-05-07T09:00:51;103045.00;;;11.10
65290;BMP180;51893;59.754;10.110;2023-05-07T09:03:20;103041.20;;;11.30
65290;BMP180;51893;59.754;10.110;2023-05-07T09:05:49;103036.60;;;11.42
65290;BMP180;51893;59.754;10.110;2023-05-07T09:08:18;103035.80;;;11.54
65290;BMP180;51893;59.754;10.110;2023-05-07T09:10:48;103026.80;;;11.80
65290;BMP180;51893;59.754;10.110;2023-05-07T09:13:31;103025.60;;;12.00
65290;BMP180;51893;59.754;10.110;2023-05-07T09:16:11;103027.60;;;12.26
65290;BMP180;51893;59.754;10.110;2023-05-07T09:18:44;103021.60;;;12.50
65290;BMP180;51893;59.754;10.110;2023-05-07T09:21:35;103025.00;;;12.70
65290;BMP180;51893;59.754;10.110;2023-05-07T09:24:06;103024.20;;;12.90
65290;BMP180;51893;59.754;10.110;2023-05-07T09:26:36;103018.40;;;13.00
65290;BMP180;51893;59.754;10.110;2023-05-07T09:29:04;103019.80;;;13.18
65290;BMP180;51893;59.754;10.110;2023-05-07T09:31:37;103021.80;;;13.30
65290;BMP180;51893;59.754;10.110;2023-05-07T09:34:24;103014.80;;;13.48
65290;BMP180;51893;59.754;10.110;2023-05-07T09:36:56;103011.20;;;13.60
65290;BMP180;51893;59.754;10.110;2023-05-07T09:39:49;103012.20;;;13.72
65290;BMP180;51893;59.754;10.110;2023-05-07T09:42:24;103013.20;;;13.70
65290;BMP180;51893;59.754;10.110;2023-05-07T09:44:54;103015.80;;;13.80
65290;BMP180;51893;59.754;10.110;2023-05-07T09:47:27;103012.80;;;13.90
65290;BMP180;51893;59.754;10.110;2023-05-07T09:50:09;103012.40;;;14.10
65290;BMP180;51893;59.754;10.110;2023-05-07T09:52:44;103011.60;;;14.30
65290;BMP180;51893;59.754;10.110;2023-05-07T09:55:15;103014.20;;;14.30
65290;BMP180;51893;59.754;10.110;2023-05-07T09:57:53;103010.20;;;14.40
65290;BMP180;51893;59.754;10.110;2023-05-07T10:04:20;103016.00;;;14.70
65290;BMP180;51893;59.754;10.110;2023-05-07T10:06:50;103016.80;;;14.80
65290;BMP180;51893;59.754;10.110;2023-05-07T10:09:20;103016.20;;;14.70
65290;BMP180;51893;59.754;10.110;2023-05-07T10:11:52;103013.00;;;14.80
65290;BMP180;51893;59.754;10.110;2023-05-07T10:14:24;103008.00;;;14.88
65290;BMP180;51893;59.754;10.110;2023-05-07T10:16:54;103009.20;;;15.00
65290;BMP180;51893;59.754;10.110;2023-05-07T10:19:29;103005.20;;;15.20
65290;BMP180;51893;59.754;10.110;2023-05-07T10:22:05;103000.20;;;15.36
65290;BMP180;51893;59.754;10.110;2023-05-07T10:24:36;103006.60;;;15.50
65290;BMP180;51893;59.754;10.110;2023-05-07T10:27:26;103006.20;;;15.50
65290;BMP180;51893;59.754;10.110;2023-05-07T10:32:52;102997.40;;;15.70
65290;BMP180;51893;59.754;10.110;2023-05-07T10:35:29;102996.00;;;15.80
65290;BMP180;51893;59.754;10.110;2023-05-07T10:37:59;102991.00;;;15.84
65290;BMP180;51893;59.754;10.110;2023-05-07T10:40:28;102993.80;;;16.00
65290;BMP180;51893;59.754;10.110;2023-05-07T10:43:04;102993.60;;;16.06
65290;BMP180;51893;59.754;10.110;2023-05-07T10:45:41;102993.20;;;16.20
65290;BMP180;51893;59.754;10.110;2023-05-07T10:48:13;102986.20;;;16.30
65290;BMP180;51893;59.754;10.110;2023-05-07T10:51:20;102987.40;;;16.50
65290;BMP180;51893;59.754;10.110;2023-05-07T10:56:41;102997.00;;;16.80
65290;BMP180;51893;59.754;10.110;2023-05-07T11:01:57;102986.00;;;16.50
65290;BMP180;51893;59.754;10.110;2023-05-07T11:04:26;102984.00;;;16.60
65290;BMP180;51893;59.754;10.110;2023-05-07T11:09:56;102987.40;;;16.90
65290;BMP180;51893;59.754;10.110;2023-05-07T11:15:15;102988.60;;;17.04
65290;BMP180;51893;59.754;10.110;2023-05-07T11:17:56;102973.00;;;17.00
65290;BMP180;51893;59.754;10.110;2023-05-07T11:20:50;102971.20;;;16.80
65290;BMP180;51893;59.754;10.110;2023-05-07T11:26:08;102966.20;;;17.00
65290;BMP180;51893;59.754;10.110;2023-05-07T11:28:40;102967.00;;;17.10
65290;BMP180;51893;59.754;10.110;2023-05-07T11:31:10;102971.20;;;17.20
65290;BMP180;51893;59.754;10.110;2023-05-07T11:33:38;102973.00;;;17.20
65290;BMP180;51893;59.754;10.110;2023-05-07T11:36:08;102969.80;;;17.20
65290;BMP180;51893;59.754;10.110;2023-05-07T11:38:38;102976.20;;;17.20
65290;BMP180;51893;59.754;10.110;2023-05-07T11:41:07;102980.40;;;17.40
65290;BMP180;51893;59.754;10.110;2023-05-07T11:43:36;102976.60;;;17.42
65290;BMP180;51893;59.754;10.110;2023-05-07T11:46:09;102975.00;;;17.60
65290;BMP180;51893;59.754;10.110;2023-05-07T11:48:39;102979.60;;;17.52
65290;BMP180;51893;59.754;10.110;2023-05-07T11:51:07;102979.00;;;17.50
65290;BMP180;51893;59.754;10.110;2023-05-07T11:53:42;102977.40;;;17.50
65290;BMP180;51893;59.754;10.110;2023-05-07T11:56:13;102983.60;;;17.50
65290;BMP180;51893;59.754;10.110;2023-05-07T11:58:44;102984.80;;;17.60
65290;BMP180;51893;59.754;10.110;2023-05-07T12:01:14;102981.40;;;17.60
65290;BMP180;51893;59.754;10.110;2023-05-07T12:03:45;102978.00;;;17.62
65290;BMP180;51893;59.754;10.110;2023-05-07T12:06:16;102975.00;;;17.80
65290;BMP180;51893;59.754;10.110;2023-05-07T12:08:50;102983.00;;;17.90
65290;BMP180;51893;59.754;10.110;2023-05-07T12:11:25;102984.80;;;18.00
65290;BMP180;51893;59.754;10.110;2023-05-07T12:13:54;102982.40;;;18.00
65290;BMP180;51893;59.754;10.110;2023-05-07T12:16:27;102979.00;;;18.02
65290;BMP180;51893;59.754;10.110;2023-05-07T12:18:58;102977.20;;;18.16
65290;BMP180;51893;59.754;10.110;2023-05-07T12:21:30;102981.60;;;18.30
65290;BMP180;51893;59.754;10.110;2023-05-07T12:23:58;102973.40;;;18.30
65290;BMP180;51893;59.754;10.110;2023-05-07T12:26:27;102975.20;;;18.40
65290;BMP180;51893;59.754;10.110;2023-05-07T12:28:58;102978.80;;;18.50
65290;BMP180;51893;59.754;10.110;2023-05-07T12:31:31;102982.60;;;18.60
65290;BMP180;51893;59.754;10.110;2023-05-07T12:34:02;102984.40;;;18.60
65290;BMP180;51893;59.754;10.110;2023-05-07T12:36:39;102992.20;;;18.70
65290;BMP180;51893;59.754;10.110;2023-05-07T12:39:10;102991.00;;;18.70
65290;BMP180;51893;59.754;10.110;2023-05-07T12:41:59;102990.40;;;18.70
65290;BMP180;51893;59.754;10.110;2023-05-07T12:44:32;102987.80;;;18.70
65290;BMP180;51893;59.754;10.110;2023-05-07T12:47:03;102986.40;;;18.60
65290;BMP180;51893;59.754;10.110;2023-05-07T12:49:34;102988.20;;;18.42
65290;BMP180;51893;59.754;10.110;2023-05-07T12:52:07;102979.20;;;18.40
65290;BMP180;51893;59.754;10.110;2023-05-07T12:54:45;102976.40;;;18.50
65290;BMP180;51893;59.754;10.110;2023-05-07T12:57:19;102974.20;;;18.50
65290;BMP180;51893;59.754;10.110;2023-05-07T12:59:51;102974.60;;;18.60
65290;BMP180;51893;59.754;10.110;2023-05-07T13:02:33;102977.20;;;18.70
65290;BMP180;51893;59.754;10.110;2023-05-07T13:05:05;102981.60;;;18.54
65290;BMP180;51893;59.754;10.110;2023-05-07T13:07:37;102981.40;;;18.58
65290;BMP180;51893;59.754;10.110;2023-05-07T13:10:12;102975.60;;;18.70
65290;BMP180;51893;59.754;10.110;2023-05-07T13:12:41;102969.80;;;18.90
65290;BMP180;51893;59.754;10.110;2023-05-07T13:15:10;102971.20;;;19.12
65290;BMP180;51893;59.754;10.110;2023-05-07T13:17:44;102970.40;;;19.20
65290;BMP180;51893;59.754;10.110;2023-05-07T13:20:13;102978.60;;;19.30
65290;BMP180;51893;59.754;10.110;2023-05-07T13:22:46;102968.60;;;19.40
65290;BMP180;51893;59.754;10.110;2023-05-07T13:25:21;102969.00;;;19.50
65290;BMP180;51893;59.754;10.110;2023-05-07T13:27:51;102963.20;;;19.60
65290;BMP180;51893;59.754;10.110;2023-05-07T13:30:58;102969.40;;;19.52
65290;BMP180;51893;59.754;10.110;2023-05-07T13:33:28;102963.00;;;19.60
65290;BMP180;51893;59.754;10.110;2023-05-07T13:36:02;102964.00;;;19.40
65290;BMP180;51893;59.754;10.110;2023-05-07T13:38:35;102959.40;;;19.40
65290;BMP180;51893;59.754;10.110;2023-05-07T13:41:03;102958.80;;;19.40
65290;BMP180;51893;59.754;10.110;2023-05-07T13:43:31;102955.20;;;19.30
65290;BMP180;51893;59.754;10.110;2023-05-07T13:46:01;102948.80;;;19.40
65290;BMP180;51893;59.754;10.110;2023-05-07T13:48:36;102950.20;;;19.40
65290;BMP180;51893;59.754;10.110;2023-05-07T13:51:05;102954.20;;;19.30
65290;BMP180;51893;59.754;10.110;2023-05-07T13:53:39;102950.80;;;19.30
65290;BMP180;51893;59.754;10.110;2023-05-07T13:56:11;102948.40;;;19.40
65290;BMP180;51893;59.754;10.110;2023-05-07T13:58:41;102952.40;;;19.30
65290;BMP180;51893;59.754;10.110;2023-05-07T14:01:27;102946.60;;;19.30
65290;BMP180;51893;59.754;10.110;2023-05-07T14:03:56;102943.80;;;19.36
65290;BMP180;51893;59.754;10.110;2023-05-07T14:06:27;102938.60;;;19.50
65290;BMP180;51893;59.754;10.110;2023-05-07T14:08:54;102933.20;;;19.50
65290;BMP180;51893;59.754;10.110;2023-05-07T14:11:27;102927.80;;;19.60
65290;BMP180;51893;59.754;10.110;2023-05-07T14:13:56;102928.60;;;19.60
65290;BMP180;51893;59.754;10.110;2023-05-07T14:16:27;102940.80;;;19.70
65290;BMP180;51893;59.754;10.110;2023-05-07T14:18:56;102937.60;;;19.60
65290;BMP180;51893;59.754;10.110;2023-05-07T14:21:27;102938.20;;;19.40
65290;BMP180;51893;59.754;10.110;2023-05-07T14:23:55;102936.80;;;19.40
65290;BMP180;51893;59.754;10.110;2023-05-07T14:26:24;102938.60;;;19.30
65290;BMP180;51893;59.754;10.110;2023-05-07T14:28:55;102933.20;;;19.20
65290;BMP180;51893;59.754;10.110;2023-05-07T14:31:27;102935.00;;;19.20
65290;BMP180;51893;59.754;10.110;2023-05-07T14:33:56;102936.80;;;19.30